createdAt,value
2018-06-29T00:01:00.455Z,90.93
2018-06-29T00:03:29.173Z,90.92
2018-06-29T00:05:57.842Z,91.31
2018-06-29T00:08:26.616Z,91.25
2018-06-29T00:10:55.296Z,90.98
2018-06-29T00:13:23.933Z,90.72
2018-06-29T00:15:52.590Z,90.37
2018-06-29T00:18:21.335Z,90.28
2018-06-29T00:20:50.006Z,90.30
2018-06-29T00:23:18.772Z,90.37
2018-06-29T00:25:47.427Z,90.14
2018-06-29T00:28:16.202Z,90.68
2018-06-29T00:30:44.829Z,90.34
2018-06-29T00:33:13.512Z,90.50
2018-06-29T00:35:42.188Z,90.60
2018-06-29T00:38:11.198Z,91.00
2018-06-29T00:40:39.970Z,90.83
2018-06-29T00:43:08.630Z,91.66
2018-06-29T00:45:37.261Z,92.07
2018-06-29T00:48:05.965Z,91.75
2018-06-29T00:50:34.889Z,91.30
2018-06-29T00:53:03.644Z,90.90
2018-06-29T00:55:32.396Z,91.10
2018-06-29T00:58:00.956Z,91.34
2018-06-29T01:00:29.579Z,90.68
2018-06-29T01:02:58.607Z,90.89
2018-06-29T01:05:27.343Z,91.32
2018-06-29T01:07:56.221Z,90.43
2018-06-29T01:10:25.034Z,90.48
2018-06-29T01:12:53.772Z,91.13
2018-06-29T01:15:22.401Z,92.07
2018-06-29T01:17:51.119Z,92.91
2018-06-29T01:20:19.731Z,93.08
2018-06-29T01:22:48.424Z,93.50
2018-06-29T01:25:17.080Z,93.42
2018-06-29T01:27:45.781Z,93.08
2018-06-29T01:30:14.627Z,92.96
2018-06-29T01:32:43.304Z,92.45
2018-06-29T01:35:12.039Z,91.86
2018-06-29T01:37:40.792Z,92.08
2018-06-29T01:40:09.388Z,91.81
2018-06-29T01:42:38.091Z,91.72
2018-06-29T01:45:07.202Z,91.44
2018-06-29T01:47:36.045Z,91.64
2018-06-29T01:50:04.648Z,91.61
2018-06-29T01:52:33.313Z,91.55
2018-06-29T01:55:01.934Z,92.05
2018-06-29T01:57:30.587Z,91.54
2018-06-29T01:59:59.243Z,91.71
2018-06-29T02:02:27.847Z,91.62
2018-06-29T02:04:56.828Z,91.73
2018-06-29T02:07:25.702Z,91.33
2018-06-29T02:09:54.520Z,91.43
2018-06-29T02:12:23.255Z,92.24
2018-06-29T02:14:51.955Z,92.12
2018-06-29T02:17:20.620Z,91.73
2018-06-29T02:19:49.256Z,91.99
2018-06-29T02:22:18.028Z,92.54
2018-06-29T02:24:46.622Z,92.98
2018-06-29T02:27:15.296Z,92.93
2018-06-29T02:29:44.112Z,93.58
2018-06-29T02:32:12.829Z,93.46
2018-06-29T02:34:41.453Z,93.94
2018-06-29T02:37:10.289Z,94.32
2018-06-29T02:39:38.891Z,94.98
2018-06-29T02:42:07.608Z,94.58
2018-06-29T02:44:36.439Z,95.61
2018-06-29T02:47:05.125Z,96.13
2018-06-29T02:49:33.784Z,95.77
2018-06-29T02:52:02.546Z,96.41
2018-06-29T02:54:31.303Z,96.21
2018-06-29T02:57:00.017Z,96.44
2018-06-29T02:59:28.641Z,96.19
2018-06-29T03:01:57.370Z,96.53
2018-06-29T03:04:26.098Z,96.82
2018-06-29T03:06:54.690Z,96.62
2018-06-29T03:09:23.419Z,96.71
2018-06-29T03:11:52.042Z,97.32
2018-06-29T03:14:21.167Z,96.92
2018-06-29T03:16:49.896Z,97.97
2018-06-29T03:19:18.553Z,98.88
2018-06-29T03:21:47.246Z,98.41
2018-06-29T03:24:15.890Z,98.04
2018-06-29T03:26:44.637Z,97.03
2018-06-29T03:29:13.577Z,95.99
2018-06-29T03:31:42.375Z,95.05
2018-06-29T03:34:11.116Z,93.74
2018-06-29T03:36:39.936Z,93.96
2018-06-29T03:39:10.056Z,92.78
2018-06-29T03:41:38.948Z,92.38
2018-06-29T03:44:07.949Z,91.98
2018-06-29T03:46:36.913Z,91.03
2018-06-29T03:49:05.716Z,90.98
2018-06-29T03:51:34.499Z,91.72
2018-06-29T03:54:03.305Z,92.69
2018-06-29T03:56:32.065Z,92.75
2018-06-29T03:59:00.926Z,91.81
2018-06-29T04:01:29.746Z,91.71
2018-06-29T04:03:58.391Z,91.17
2018-06-29T04:06:27.076Z,91.65
2018-06-29T04:08:55.719Z,90.85
2018-06-29T04:11:24.567Z,91.02
2018-06-29T04:13:53.313Z,90.58
2018-06-29T04:16:21.955Z,90.90
2018-06-29T04:18:50.722Z,89.67
2018-06-29T04:21:19.459Z,89.95
2018-06-29T04:23:49.375Z,90.15
2018-06-29T04:26:18.413Z,90.74
2018-06-29T04:28:47.262Z,91.29
2018-06-29T04:31:15.906Z,92.95
2018-06-29T04:33:44.672Z,93.79
2018-06-29T04:36:13.484Z,95.57
2018-06-29T04:38:42.642Z,96.49
2018-06-29T04:41:11.838Z,96.01
2018-06-29T04:43:41.692Z,95.93
2018-06-29T04:46:17.052Z,94.98
2018-06-29T04:48:46.969Z,94.67
2018-06-29T04:51:16.130Z,94.12
2018-06-29T04:53:44.691Z,94.37
2018-06-29T04:56:14.597Z,94.20
2018-06-29T04:58:43.285Z,93.93
2018-06-29T05:01:11.837Z,94.39
2018-06-29T05:03:40.733Z,94.52
2018-06-29T05:06:10.289Z,94.99
2018-06-29T05:08:39.336Z,94.19
2018-06-29T05:11:08.257Z,93.97
2018-06-29T05:13:37.207Z,93.24
2018-06-29T05:16:05.780Z,93.64
2018-06-29T05:18:34.940Z,93.27
2018-06-29T05:21:04.163Z,92.51
2018-06-29T05:23:39.472Z,90.84
2018-06-29T05:26:08.065Z,89.74
2018-06-29T05:28:37.715Z,89.03
2018-06-29T05:31:06.436Z,88.72
2018-06-29T05:33:34.995Z,88.49
2018-06-29T05:36:03.596Z,88.89
2018-06-29T05:38:33.572Z,87.62
2018-06-29T05:41:02.344Z,87.47
2018-06-29T05:43:31.144Z,87.45
2018-06-29T05:45:59.753Z,87.51
2018-06-29T05:48:29.183Z,86.88
2018-06-29T05:50:58.413Z,86.84
2018-06-29T05:53:27.395Z,86.37
2018-06-29T05:55:55.993Z,85.70
2018-06-29T05:58:24.788Z,85.35
2018-06-29T06:00:53.681Z,85.62
2018-06-29T06:03:22.212Z,86.72
2018-06-29T06:05:50.961Z,87.10
2018-06-29T06:08:19.634Z,86.84
2018-06-29T06:10:48.162Z,87.78
2018-06-29T06:13:16.817Z,86.49
2018-06-29T06:15:45.609Z,87.19
2018-06-29T06:18:14.302Z,87.06
2018-06-29T06:20:44.284Z,86.39
2018-06-29T06:23:17.823Z,85.04
2018-06-29T06:25:46.619Z,83.88
2018-06-29T06:28:15.138Z,83.41
2018-06-29T06:30:45.104Z,81.57
2018-06-29T06:33:13.655Z,81.79
2018-06-29T06:35:42.580Z,80.02
2018-06-29T06:38:11.492Z,79.05
2018-06-29T06:40:40.697Z,77.32
2018-06-29T06:43:09.222Z,76.91
2018-06-29T06:45:37.816Z,76.12
2018-06-29T06:48:06.391Z,77.61
2018-06-29T06:50:35.638Z,79.49
2018-06-29T06:53:04.441Z,78.85
2018-06-29T06:55:32.976Z,80.17
2018-06-29T06:58:01.852Z,79.85
2018-06-29T07:00:30.381Z,78.79
2018-06-29T07:02:59.434Z,79.61
2018-06-29T07:05:28.168Z,80.82
2018-06-29T07:07:56.807Z,82.57
2018-06-29T07:10:25.493Z,82.63
2018-06-29T07:12:53.984Z,82.28
2018-06-29T07:15:23.221Z,83.03
2018-06-29T07:17:51.725Z,83.89
2018-06-29T07:20:20.260Z,82.86
2018-06-29T07:22:48.984Z,83.29
2018-06-29T07:25:17.508Z,82.50
2018-06-29T07:27:46.181Z,83.10
2018-06-29T07:30:14.738Z,82.52
2018-06-29T07:32:43.537Z,83.07
2018-06-29T07:35:12.109Z,82.74
2018-06-29T07:37:40.644Z,83.24
2018-06-29T07:40:09.187Z,83.57
2018-06-29T07:42:37.761Z,83.98
2018-06-29T07:45:06.551Z,83.49
2018-06-29T07:47:35.171Z,85.55
2018-06-29T07:50:04.022Z,87.65
2018-06-29T07:52:34.713Z,87.99
2018-06-29T07:55:03.987Z,88.21
2018-06-29T07:57:33.051Z,87.02
2018-06-29T08:00:03.997Z,86.25
2018-06-29T08:02:33.488Z,83.44
2018-06-29T08:05:02.751Z,83.62
2018-06-29T08:07:32.177Z,82.54
2018-06-29T08:10:02.105Z,82.42
2018-06-29T08:12:31.233Z,80.18
2018-06-29T08:15:00.344Z,78.13
2018-06-29T08:17:29.775Z,76.35
2018-06-29T08:19:58.820Z,75.67
2018-06-29T08:22:29.302Z,74.21
2018-06-29T08:25:08.285Z,73.01
2018-06-29T08:27:37.796Z,72.95
2018-06-29T08:30:08.153Z,70.25
2018-06-29T08:32:37.137Z,67.91
2018-06-29T08:35:06.591Z,58.14
2018-06-29T08:37:35.933Z,61.61
2018-06-29T08:40:05.600Z,63.19
2018-06-29T08:42:35.426Z,61.75
2018-06-29T08:45:04.441Z,61.51
2018-06-29T08:47:33.400Z,62.19
2018-06-29T08:50:02.669Z,56.21
2018-06-29T08:52:31.896Z,53.57
2018-06-29T08:55:01.354Z,48.50
2018-06-29T08:57:30.704Z,40.39
2018-06-29T09:00:00.086Z,35.47
2018-06-29T09:02:28.705Z,32.13
2018-06-29T09:04:57.856Z,31.82
2018-06-29T09:07:27.553Z,32.94
2018-06-29T09:09:57.034Z,34.71
2018-06-29T09:12:26.195Z,35.87
2018-06-29T09:14:54.849Z,30.71
2018-06-29T09:17:23.913Z,31.91
2018-06-29T09:19:53.707Z,30.07
2018-06-29T09:22:22.393Z,30.13
2018-06-29T09:24:51.212Z,27.82
2018-06-29T09:27:20.611Z,31.87
2018-06-29T09:29:49.550Z,30.14
2018-06-29T09:32:18.744Z,33.44
2018-06-29T09:34:47.409Z,37.59
2018-06-29T09:37:16.154Z,37.10
2018-06-29T09:39:44.769Z,39.74
2018-06-29T09:42:13.393Z,37.55
2018-06-29T09:44:42.090Z,37.73
2018-06-29T09:47:10.694Z,38.99
2018-06-29T09:49:39.313Z,43.90
2018-06-29T09:52:07.964Z,47.81
2018-06-29T09:54:38.118Z,45.65
2018-06-29T09:57:06.852Z,47.32
2018-06-29T09:59:35.687Z,41.88
2018-06-29T10:02:04.434Z,38.20
2018-06-29T10:04:33.105Z,42.39
2018-06-29T10:07:01.783Z,40.16
2018-06-29T10:09:31.380Z,41.87
2018-06-29T10:12:00.014Z,39.55
2018-06-29T10:14:28.714Z,40.87
2018-06-29T10:16:57.377Z,44.61
2018-06-29T10:19:26.119Z,40.45
2018-06-29T10:21:54.714Z,37.99
2018-06-29T10:24:23.845Z,39.64
2018-06-29T10:26:52.497Z,38.73
2018-06-29T10:29:21.174Z,35.98
2018-06-29T10:31:49.707Z,41.14
2018-06-29T10:34:18.227Z,39.28
2018-06-29T10:36:46.943Z,37.20
2018-06-29T10:39:16.365Z,42.58
2018-06-29T10:41:45.223Z,40.20
2018-06-29T10:44:13.745Z,47.16
2018-06-29T10:46:42.617Z,45.47
2018-06-29T10:49:11.192Z,42.42
2018-06-29T10:51:39.778Z,49.69
2018-06-29T10:54:08.392Z,48.57
2018-06-29T10:56:36.904Z,47.37
2018-06-29T10:59:05.414Z,47.74
2018-06-29T11:01:33.958Z,50.42
2018-06-29T11:04:02.447Z,51.91
2018-06-29T11:06:31.244Z,55.90
2018-06-29T11:08:59.744Z,52.19
2018-06-29T11:11:28.476Z,54.18
2018-06-29T11:13:57.010Z,52.04
2018-06-29T11:16:25.629Z,55.26
2018-06-29T11:18:54.131Z,52.54
2018-06-29T11:21:22.627Z,51.32
2018-06-29T11:23:51.187Z,49.04
2018-06-29T11:26:19.741Z,52.70
2018-06-29T11:28:48.525Z,52.97
2018-06-29T11:31:17.069Z,53.06
2018-06-29T11:33:45.584Z,50.67
2018-06-29T11:36:14.121Z,53.69
2018-06-29T11:38:42.676Z,51.45
2018-06-29T11:41:11.173Z,52.12
2018-06-29T11:43:39.725Z,51.36
2018-06-29T11:46:08.269Z,49.03
2018-06-29T11:48:36.912Z,51.11
2018-06-29T11:51:05.592Z,52.60
2018-06-29T11:53:34.249Z,51.57
2018-06-29T11:56:03.126Z,52.41
2018-06-29T11:58:31.668Z,50.71
2018-06-29T12:01:00.305Z,49.91
2018-06-29T12:03:28.890Z,50.90
2018-06-29T12:05:57.430Z,51.29
2018-06-29T12:08:26.083Z,55.72
2018-06-29T12:10:54.630Z,51.12
2018-06-29T12:13:23.150Z,49.80
2018-06-29T12:15:51.826Z,49.24
2018-06-29T12:18:20.745Z,54.43
2018-06-29T12:20:49.246Z,50.46
2018-06-29T12:23:17.882Z,53.67
2018-06-29T12:25:46.597Z,51.81
2018-06-29T12:28:15.147Z,50.49
2018-06-29T12:30:43.724Z,51.17
2018-06-29T12:33:12.303Z,51.51
2018-06-29T12:35:40.838Z,54.04
2018-06-29T12:38:09.483Z,55.61
2018-06-29T12:40:38.037Z,51.74
2018-06-29T12:43:06.811Z,50.40
2018-06-29T12:45:35.372Z,53.03
2018-06-29T12:48:03.908Z,48.87
2018-06-29T12:50:32.405Z,49.09
2018-06-29T12:53:00.971Z,52.20
2018-06-29T12:55:29.637Z,51.43
2018-06-29T12:57:58.228Z,52.69
2018-06-29T13:00:26.814Z,54.11
2018-06-29T13:02:55.457Z,52.98
2018-06-29T13:05:24.061Z,50.25
2018-06-29T13:07:52.588Z,50.18
2018-06-29T13:10:21.089Z,48.68
2018-06-29T13:12:49.578Z,51.20
2018-06-29T13:15:18.094Z,50.48
2018-06-29T13:17:46.597Z,50.27
2018-06-29T13:20:15.209Z,52.11
2018-06-29T13:22:43.741Z,50.03
2018-06-29T13:25:12.368Z,51.04
2018-06-29T13:27:40.902Z,49.98
2018-06-29T13:30:09.438Z,51.54
2018-06-29T13:32:37.960Z,51.78
2018-06-29T13:35:06.575Z,52.39
2018-06-29T13:37:35.722Z,49.75
2018-06-29T13:40:04.439Z,49.65
2018-06-29T13:42:33.488Z,50.78
2018-06-29T13:45:02.043Z,50.15
2018-06-29T13:47:30.821Z,50.37
2018-06-29T13:49:59.346Z,52.33
2018-06-29T13:52:27.873Z,50.97
2018-06-29T13:54:56.618Z,49.50
2018-06-29T13:57:25.075Z,52.19
2018-06-29T13:59:53.688Z,50.14
2018-06-29T14:02:22.251Z,50.16
2018-06-29T14:04:51.534Z,48.81
2018-06-29T14:07:20.187Z,46.41
2018-06-29T14:09:48.696Z,46.06
2018-06-29T14:12:17.181Z,44.86
2018-06-29T14:14:45.740Z,45.37
2018-06-29T14:17:14.421Z,47.91
2018-06-29T14:19:43.773Z,47.72
2018-06-29T14:22:13.002Z,48.32
2018-06-29T14:24:41.553Z,46.69
2018-06-29T14:27:10.050Z,46.26
2018-06-29T14:29:38.548Z,44.29
2018-06-29T14:32:07.044Z,46.89
2018-06-29T14:34:35.692Z,46.82
2018-06-29T14:37:04.213Z,46.37
2018-06-29T14:39:32.709Z,47.03
2018-06-29T14:42:01.253Z,47.72
2018-06-29T14:44:29.772Z,47.70
2018-06-29T14:46:58.273Z,48.58
2018-06-29T14:49:26.779Z,49.10
2018-06-29T14:51:55.434Z,49.56
2018-06-29T14:54:23.921Z,50.06
2018-06-29T14:56:52.665Z,47.30
2018-06-29T14:59:21.433Z,48.01
2018-06-29T15:01:50.047Z,48.08
2018-06-29T15:04:18.890Z,49.05
2018-06-29T15:06:47.446Z,50.42
2018-06-29T15:09:15.981Z,49.38
2018-06-29T15:11:44.509Z,49.67
2018-06-29T15:14:13.044Z,50.44
2018-06-29T15:16:41.706Z,51.66
2018-06-29T15:19:10.238Z,53.29
2018-06-29T15:21:39.020Z,53.73
2018-06-29T15:24:08.280Z,55.35
2018-06-29T15:26:36.942Z,54.80
2018-06-29T15:29:06.203Z,55.44
2018-06-29T15:31:35.499Z,56.73
2018-06-29T15:34:04.233Z,56.38
2018-06-29T15:36:33.185Z,57.57
2018-06-29T15:39:01.889Z,57.38
2018-06-29T15:41:30.897Z,58.29
2018-06-29T15:43:59.752Z,58.18
2018-06-29T15:46:28.654Z,58.54
2018-06-29T15:48:57.605Z,58.42
2018-06-29T15:51:26.443Z,59.38
2018-06-29T15:53:55.482Z,59.44
2018-06-29T15:56:24.535Z,60.93
2018-06-29T15:58:53.565Z,61.19
2018-06-29T16:01:22.489Z,61.83
2018-06-29T16:03:51.311Z,62.50
2018-06-29T16:06:20.321Z,62.61
2018-06-29T16:08:49.328Z,63.84
2018-06-29T16:11:17.876Z,64.74
2018-06-29T16:13:47.382Z,65.78
2018-06-29T16:16:16.068Z,68.14
2018-06-29T16:18:44.918Z,68.05
2018-06-29T16:21:13.458Z,69.14
2018-06-29T16:23:42.020Z,70.11
2018-06-29T16:26:10.597Z,69.77
2018-06-29T16:28:39.185Z,70.93
2018-06-29T16:31:07.759Z,70.08
2018-06-29T16:33:36.346Z,70.41
2018-06-29T16:36:04.985Z,72.13
2018-06-29T16:38:33.583Z,70.90
2018-06-29T16:41:02.226Z,73.33
2018-06-29T16:43:32.917Z,72.72
2018-06-29T16:46:01.446Z,69.84
2018-06-29T16:48:30.118Z,70.87
2018-06-29T16:50:58.904Z,72.46
2018-06-29T16:53:27.548Z,71.94
2018-06-29T16:55:56.243Z,73.67
2018-06-29T16:58:24.827Z,72.66
2018-06-29T17:00:53.743Z,71.64
2018-06-29T17:03:22.633Z,70.68
2018-06-29T17:05:51.172Z,71.28
2018-06-29T17:08:19.784Z,70.72
2018-06-29T17:10:48.339Z,70.68
2018-06-29T17:13:17.049Z,70.09
2018-06-29T17:15:46.034Z,69.45
2018-06-29T17:18:15.374Z,70.06
2018-06-29T17:20:44.228Z,70.75
2018-06-29T17:23:13.230Z,69.58
2018-06-29T17:25:41.917Z,68.53
2018-06-29T17:28:10.497Z,67.43
2018-06-29T17:30:39.989Z,67.85
2018-06-29T17:33:08.617Z,66.49
2018-06-29T17:35:37.308Z,67.38
2018-06-29T17:38:06.170Z,65.75
2018-06-29T17:40:35.629Z,65.64
2018-06-29T17:43:04.234Z,65.30
2018-06-29T17:45:32.900Z,64.68
2018-06-29T17:48:01.419Z,64.28
2018-06-29T17:50:33.104Z,65.63
2018-06-29T17:53:01.709Z,65.29
2018-06-29T17:55:30.413Z,65.21
2018-06-29T17:57:59.282Z,65.70
2018-06-29T18:00:27.908Z,66.38
2018-06-29T18:02:56.545Z,65.75
2018-06-29T18:05:25.141Z,66.40
2018-06-29T18:07:53.669Z,66.22
2018-06-29T18:10:22.414Z,66.71
2018-06-29T18:12:51.257Z,66.95
2018-06-29T18:15:20.345Z,66.29
2018-06-29T18:17:49.036Z,67.40
2018-06-29T18:20:18.183Z,66.88
2018-06-29T18:22:47.046Z,67.88
2018-06-29T18:25:15.786Z,67.50
2018-06-29T18:27:44.539Z,67.83
2018-06-29T18:30:13.588Z,68.55
2018-06-29T18:32:42.374Z,68.04
2018-06-29T18:35:11.385Z,68.97
2018-06-29T18:37:40.255Z,69.18
2018-06-29T18:40:09.124Z,69.87
2018-06-29T18:42:38.222Z,69.97
2018-06-29T18:45:07.097Z,71.21
2018-06-29T18:47:36.054Z,72.93
2018-06-29T18:50:05.085Z,73.62
2018-06-29T18:52:33.921Z,73.30
2018-06-29T18:55:02.510Z,73.62
2018-06-29T18:57:31.171Z,74.39
2018-06-29T18:59:59.779Z,74.71
2018-06-29T19:02:28.694Z,75.54
2018-06-29T19:04:57.364Z,75.92
2018-06-29T19:07:26.548Z,75.88
2018-06-29T19:09:55.452Z,76.45
2018-06-29T19:12:24.287Z,76.47
2018-06-29T19:14:53.199Z,76.71
2018-06-29T19:17:21.967Z,77.29
2018-06-29T19:19:50.716Z,77.48
2018-06-29T19:22:19.639Z,78.37
2018-06-29T19:24:48.557Z,78.49
2018-06-29T19:27:17.373Z,78.46
2018-06-29T19:29:46.221Z,79.71
2018-06-29T19:32:15.067Z,80.11
2018-06-29T19:34:44.018Z,80.46
2018-06-29T19:37:12.989Z,80.80
2018-06-29T19:39:41.892Z,81.62
2018-06-29T19:42:10.673Z,82.11
2018-06-29T19:44:39.518Z,82.59
2018-06-29T19:47:08.526Z,82.71
2018-06-29T19:49:37.317Z,82.87
2018-06-29T19:52:06.236Z,82.97
2018-06-29T19:54:36.094Z,83.00
2018-06-29T19:57:05.031Z,83.52
2018-06-29T19:59:33.769Z,83.10
2018-06-29T20:02:02.750Z,83.69
2018-06-29T20:04:31.571Z,85.59
2018-06-29T20:07:00.369Z,86.17
2018-06-29T20:09:29.330Z,88.44
2018-06-29T20:11:58.077Z,86.98
2018-06-29T20:14:26.685Z,87.83
2018-06-29T20:16:55.212Z,87.76
2018-06-29T20:19:23.788Z,88.22
2018-06-29T20:21:52.394Z,87.78
2018-06-29T20:24:20.989Z,88.99
2018-06-29T20:26:49.513Z,89.19
2018-06-29T20:29:18.140Z,89.52
2018-06-29T20:31:47.064Z,90.40
2018-06-29T20:34:15.617Z,90.86
2018-06-29T20:36:44.128Z,91.72
2018-06-29T20:39:13.291Z,91.91
2018-06-29T20:41:41.926Z,92.67
2018-06-29T20:44:10.801Z,93.19
2018-06-29T20:46:39.460Z,93.87
2018-06-29T20:49:07.974Z,93.94
2018-06-29T20:51:36.533Z,94.74
2018-06-29T20:54:05.440Z,94.80
2018-06-29T20:56:34.260Z,95.03
2018-06-29T20:59:02.880Z,95.16
2018-06-29T21:01:31.527Z,95.28
2018-06-29T21:04:00.380Z,95.84
2018-06-29T21:06:29.149Z,95.61
2018-06-29T21:08:58.091Z,95.70
2018-06-29T21:11:26.876Z,95.92
2018-06-29T21:13:55.630Z,96.75
2018-06-29T21:16:24.383Z,96.24
2018-06-29T21:18:53.098Z,96.22
2018-06-29T21:21:21.908Z,96.04
2018-06-29T21:23:50.721Z,96.62
2018-06-29T21:26:19.419Z,96.77
2018-06-29T21:28:48.343Z,97.65
2018-06-29T21:31:17.176Z,98.17
2018-06-29T21:33:45.975Z,98.75
2018-06-29T21:36:14.697Z,99.42
2018-06-29T21:38:43.394Z,99.52
2018-06-29T21:41:12.158Z,99.60
2018-06-29T21:43:41.027Z,100.00
2018-06-29T21:46:09.893Z,100.00
2018-06-29T21:48:38.625Z,100.00
2018-06-29T21:51:07.442Z,100.00
2018-06-29T21:53:36.154Z,100.00
2018-06-29T21:56:05.110Z,100.00
2018-06-29T21:58:33.825Z,100.00
2018-06-29T22:01:04.898Z,100.00
2018-06-29T22:03:33.723Z,100.00
2018-06-29T22:06:03.512Z,100.00
2018-06-29T22:08:32.164Z,100.00
2018-06-29T22:11:00.795Z,100.00
2018-06-29T22:13:29.705Z,100.00
2018-06-29T22:15:58.511Z,100.00
2018-06-29T22:18:27.354Z,100.00
2018-06-29T22:20:56.292Z,100.00
2018-06-29T22:23:25.025Z,100.00
2018-06-29T22:25:53.720Z,100.00
2018-06-29T22:28:22.594Z,100.00
2018-06-29T22:30:51.279Z,100.00
2018-06-29T22:33:19.950Z,100.00
2018-06-29T22:35:48.752Z,100.00
2018-06-29T22:38:17.564Z,100.00
2018-06-29T22:40:46.390Z,100.00
2018-06-29T22:43:15.064Z,100.00
2018-06-29T22:45:43.798Z,100.00
2018-06-29T22:48:13.128Z,100.00
2018-06-29T22:50:41.769Z,100.00
2018-06-29T22:53:10.527Z,100.00
2018-06-29T22:55:39.202Z,100.00
2018-06-29T22:58:07.850Z,100.00
2018-06-29T23:00:36.523Z,100.00
2018-06-29T23:03:11.358Z,100.00
2018-06-29T23:05:40.121Z,100.00
2018-06-29T23:08:10.478Z,100.00
2018-06-29T23:10:39.581Z,100.00
2018-06-29T23:13:09.303Z,100.00
2018-06-29T23:15:38.193Z,100.00
2018-06-29T23:18:06.919Z,100.00
2018-06-29T23:20:35.691Z,100.00
2018-06-29T23:23:04.476Z,100.00
2018-06-29T23:25:33.272Z,100.00
2018-06-29T23:28:01.967Z,100.00
2018-06-29T23:30:30.700Z,100.00
2018-06-29T23:32:59.394Z,100.00
2018-06-29T23:35:28.097Z,100.00
2018-06-29T23:37:56.886Z,100.00
2018-06-29T23:40:25.674Z,100.00
2018-06-29T23:42:54.386Z,100.00
2018-06-29T23:45:23.135Z,100.00
2018-06-29T23:47:51.825Z,100.00
2018-06-29T23:50:20.588Z,100.00
2018-06-29T23:52:49.404Z,100.00
2018-06-29T23:55:18.252Z,100.00
2018-06-29T23:57:47.017Z,100.00
